II85 weather

Blomenberg Airport
Decatur, Indiana, United States

Public forecast

Using degrees Fahrenheit for public forecast. Weather courtesy of forecast.io.

METAR (pilot weather report)

Closest report is Fort Wayne International Airport, 8.3 nm (15.3 km) NW. Retrieved 2019/04/22 18:54 UTC (1 hour ago):

KFWA 221854Z 17014KT 10SM SCT170 SCT250 23/11 A3011 RMK AO2 SLP196 T02330111

TAF (pilot weather forecast)

Closest forecast is Fort Wayne International Airport, 8.3 nm (15.3 km) NW. Retrieved 2019/04/22 18:36 UTC (2 hours ago):

TAF KFWA 221734Z 2218/2318 18011G21KT P6SM SCT150 FM230000 17010KT P6SM SCT250 FM231100 22012KT P6SM BKN030 FM231500 27013G24KT P6SM VCSH BKN022